Last 24 Hours

Coyote Canyon

10 Minute Data | America/Los_Angeles
as of 8/31/26 10:35 AM PDT
Date & Time Temp (°F) Dew Pt (°F) RH (%) Wind Spd (mph) Wind Dir (°) Wind Gust (mph) Wind Gst Dir (°) Daily Max Temp (°F) Daily Min Temp (°F)
8/31/26 - 1030 77.4 47.7 35 11.3 WNW | 291 17.4 WNW | 296 78.0 62.8
8/31/26 - 1020 76.6 46.2 34 12.0 WNW | 283 19.4 WSW | 255 77.3 62.8
8/31/26 - 1010 76.7 45.3 33 12.3 WNW | 299 18.5 NW | 304 77.3 62.8
8/31/26 - 1000 76.0 43.9 32 11.8 WNW | 297 20.8 WNW | 293 76.6 62.8
8/31/26 - 0950 75.8 42.9 31 12.2 WNW | 298 19.4 WNW | 284 76.4 62.8
8/31/26 - 0940 75.2 43.2 32 15.4 WNW | 297 22.5 WNW | 298 75.9 62.8
8/31/26 - 0930 75.4 39.3 27 15.0 WNW | 298 22.3 WNW | 294 75.9 62.8
8/31/26 - 0920 75.1 33.4 22 13.6 NW | 304 21.0 WNW | 287 75.4 62.8
8/31/26 - 0910 74.8 29.6 19 14.3 WNW | 301 20.6 WNW | 299 75.1 62.8
8/31/26 - 0900 74.6 24.3 15 14.5 WNW | 296 22.9 WNW | 296 74.8 62.8
8/31/26 - 0850 74.0 24.8 16 13.3 WNW | 294 20.5 W | 280 74.4 62.8
8/31/26 - 0840 73.5 24.5 16 13.2 WNW | 299 18.7 WNW | 290 73.9 62.8
8/31/26 - 0830 72.8 26.9 18 9.4 WNW | 300 15.6 WNW | 297 73.6 62.8
8/31/26 - 0820 71.6 27.9 20 10.4 NW | 305 15.2 WNW | 295 72.1 62.8
8/31/26 - 0810 70.5 29.4 22 11.0 WNW | 303 15.4 WNW | 294 71.0 62.8
8/31/26 - 0800 69.7 30.5 23 11.1 NW | 309 15.8 WNW | 303 69.9 62.8
8/31/26 - 0750 68.8 31.3 25 10.5 NW | 311 16.9 NW | 309 69.4 62.8
8/31/26 - 0740 67.7 31.9 26 11.0 NW | 312 15.2 WNW | 303 68.5 62.8
8/31/26 - 0730 66.9 32.0 27 10.1 NW | 310 14.7 WNW | 300 68.5 62.8
8/31/26 - 0720 66.2 31.5 27 11.9 NW | 306 19.7 WNW | 298 68.5 62.8
8/31/26 - 0710 65.5 31.3 28 10.9 NW | 307 15.9 NW | 307 68.5 62.8
8/31/26 - 0700 64.9 31.1 28 11.2 NW | 308 16.5 WNW | 302 68.5 62.8
8/31/26 - 0650 64.3 31.6 29 11.5 NW | 308 15.3 WNW | 300 68.5 62.8
8/31/26 - 0640 64.1 32.0 30 11.4 NW | 308 16.4 NW | 316 68.5 62.8
8/31/26 - 0630 63.9 32.0 30 12.2 NW | 307 17.0 WNW | 300 68.5 62.8
8/31/26 - 0620 64.0 32.2 30 10.8 NW | 306 13.3 NW | 313 68.5 62.8
8/31/26 - 0610 64.1 32.5 30 11.9 NW | 307 15.2 NW | 311 68.5 62.8
8/31/26 - 0600 64.2 33.0 31 12.2 WNW | 302 15.5 WNW | 301 68.5 62.8
8/31/26 - 0550 64.2 33.6 32 13.0 WNW | 300 17.1 WNW | 300 68.5 62.8
8/31/26 - 0540 64.1 34.7 33 13.4 WNW | 300 17.6 WNW | 293 68.5 62.8
8/31/26 - 0530 64.0 35.5 35 13.8 WNW | 298 18.5 WNW | 298 68.5 62.8
8/31/26 - 0520 62.9 36.9 38 13.3 WNW | 296 18.3 WNW | 290 68.5 62.8
8/31/26 - 0510 63.0 37.8 39 13.0 WNW | 298 15.3 WNW | 300 68.5 62.8
8/31/26 - 0500 63.0 38.6 40 13.1 WNW | 298 15.9 WNW | 297 68.5 62.8
8/31/26 - 0450 63.6 39.0 40 12.2 WNW | 300 15.2 WNW | 294 68.5 63.4
8/31/26 - 0440 64.3 38.9 39 12.2 WNW | 303 15.0 WNW | 297 68.5 64.0
8/31/26 - 0430 64.7 37.6 37 11.9 NW | 306 14.6 NW | 308 68.5 64.3
8/31/26 - 0420 65.0 36.6 35 11.4 NW | 305 14.4 NW | 308 68.5 64.3
8/31/26 - 0410 65.4 35.7 33 11.8 NW | 305 16.4 NW | 310 68.5 64.3
8/31/26 - 0400 65.1 36.8 35 11.8 NW | 308 17.1 NW | 312 68.5 64.3
8/31/26 - 0350 64.5 38.3 38 12.0 NW | 305 16.1 NW | 313 68.5 64.3
8/31/26 - 0340 65.0 38.2 37 11.2 WNW | 303 14.0 WNW | 301 68.5 64.6
8/31/26 - 0330 66.6 37.2 34 10.8 NW | 310 14.2 NW | 306 68.5 65.9
8/31/26 - 0320 66.8 37.6 34 11.8 NW | 312 14.6 NW | 312 68.5 65.9
8/31/26 - 0310 66.9 38.4 35 11.8 NW | 310 15.0 NW | 310 68.5 65.9
8/31/26 - 0300 66.6 39.7 37 12.4 NW | 310 17.3 NW | 310 68.5 65.9
8/31/26 - 0250 66.4 40.3 38 12.8 NW | 311 16.4 NW | 311 68.5 65.9
8/31/26 - 0240 66.4 39.0 36 13.4 NW | 308 17.2 NW | 313 68.5 65.9
8/31/26 - 0230 66.6 38.1 35 13.1 NW | 306 17.6 NW | 307 68.5 65.9
8/31/26 - 0220 67.1 38.9 36 12.4 NW | 308 16.0 NW | 309 68.5 65.9
8/31/26 - 0210 66.7 40.9 39 11.2 NW | 307 16.4 NW | 313 68.5 65.9
8/31/26 - 0200 66.3 42.2 41 11.9 NW | 304 14.6 NW | 304 68.5 65.9
8/31/26 - 0150 66.0 41.6 41 11.2 WNW | 302 14.2 NW | 304 68.5 65.9
8/31/26 - 0140 66.2 39.4 37 11.0 WNW | 299 13.9 WNW | 297 68.5 66.1
8/31/26 - 0130 66.9 37.6 34 11.3 WNW | 297 13.9 WNW | 302 68.5 66.3
8/31/26 - 0120 67.7 37.2 32 10.2 WNW | 301 13.7 WNW | 295 68.5 67.3
8/31/26 - 0110 68.2 36.9 32 10.2 WNW | 303 16.4 NW | 304 68.5 68.0
8/31/26 - 0100 68.4 37.0 32 9.1 NW | 308 12.6 NW | 307 89.9 66.7
8/31/26 - 0050 68.4 37.4 32 10.2 NW | 310 14.5 NW | 310 89.9 66.7
8/31/26 - 0040 68.0 38.1 33 10.2 NW | 309 14.2 NW | 310 89.9 66.7
8/31/26 - 0030 68.1 37.9 33 12.0 WNW | 303 15.5 WNW | 291 89.9 66.7
8/31/26 - 0020 68.1 37.8 33 10.0 NW | 304 13.7 NW | 304 89.9 66.7
8/31/26 - 0010 67.8 39.5 35 8.8 NW | 306 12.6 NW | 315 89.9 66.7
8/31/26 - 0000 67.5 40.7 37 9.5 WNW | 302 13.4 NW | 305 89.9 66.7
8/30/26 - 2350 68.0 41.0 37 10.4 NW | 305 13.5 WNW | 300 89.9 66.7
8/30/26 - 2340 68.3 41.4 37 9.1 NW | 310 12.6 WNW | 296 89.9 66.7
8/30/26 - 2330 68.6 41.7 38 9.7 NW | 310 14.3 NW | 308 89.9 66.7
8/30/26 - 2320 69.2 42.2 37 10.5 NW | 312 14.5 NW | 314 89.9 66.7
8/30/26 - 2310 68.9 40.9 36 11.6 NW | 322 14.6 NW | 324 89.9 66.7
8/30/26 - 2300 69.1 39.3 34 12.0 NW | 321 15.4 NNW | 329 89.9 66.7
8/30/26 - 2250 68.9 39.1 34 10.6 NW | 322 15.2 NNW | 331 89.9 66.7
8/30/26 - 2240 69.1 39.5 34 9.6 NW | 321 12.3 NW | 321 89.9 66.7
8/30/26 - 2230 69.6 39.8 34 8.7 NW | 320 11.0 NW | 314 89.9 66.7
8/30/26 - 2220 69.8 40.2 34 7.1 NNW | 328 9.5 NW | 319 89.9 66.7
8/30/26 - 2210 69.6 39.9 34 7.5 NNW | 336 10.9 NW | 316 89.9 66.7
8/30/26 - 2200 69.0 39.8 34 8.9 NNW | 328 12.1 NNW | 338 89.9 66.7
8/30/26 - 2150 69.3 40.1 34 9.3 NW | 320 12.6 NW | 323 89.9 66.7
8/30/26 - 2140 70.0 40.4 34 8.8 NW | 310 12.6 NW | 307 89.9 66.7
8/30/26 - 2130 70.2 40.6 34 9.7 NW | 309 14.2 WNW | 296 89.9 66.7
8/30/26 - 2120 70.2 40.9 34 10.2 NW | 313 14.8 WNW | 303 89.9 66.7
8/30/26 - 2110 71.2 40.3 33 9.8 NW | 311 15.5 WNW | 301 89.9 66.7
8/30/26 - 2100 71.8 41.0 33 10.5 NW | 304 16.4 WNW | 297 89.9 66.7
8/30/26 - 2050 72.4 41.7 33 13.3 WNW | 303 19.5 NW | 312 89.9 66.7
8/30/26 - 2040 73.2 41.1 31 16.3 WNW | 297 21.8 WNW | 297 89.9 66.7
8/30/26 - 2030 73.1 41.9 32 16.6 WNW | 296 21.8 WNW | 286 89.9 66.7
8/30/26 - 2020 72.7 42.8 34 15.0 WNW | 301 20.5 WNW | 292 89.9 66.7
8/30/26 - 2010 72.8 44.2 36 15.1 WNW | 300 19.9 WNW | 300 89.9 66.7
8/30/26 - 2000 73.4 44.8 36 15.6 WNW | 301 23.7 WNW | 296 89.9 66.7
8/30/26 - 1950 74.0 44.3 34 16.0 WNW | 300 23.6 NW | 304 89.9 66.7
8/30/26 - 1940 74.5 45.2 35 15.8 WNW | 302 23.5 WNW | 303 89.9 66.7
8/30/26 - 1930 74.9 45.2 35 11.8 NW | 307 21.3 NW | 307 89.9 66.7
8/30/26 - 1920 75.5 44.4 33 13.5 NW | 305 20.3 WNW | 301 89.9 66.7
8/30/26 - 1910 76.3 45.8 34 15.2 WNW | 300 23.2 WNW | 295 89.9 66.7
8/30/26 - 1900 77.0 45.6 33 16.3 WNW | 288 23.3 WNW | 302 89.9 66.7
8/30/26 - 1850 77.7 45.8 32 15.7 WNW | 284 24.0 WNW | 285 89.9 66.7
8/30/26 - 1840 78.4 45.9 32 16.6 W | 280 26.0 WNW | 284 89.9 66.7
8/30/26 - 1830 79.0 46.0 31 18.8 W | 280 27.8 WNW | 285 89.9 66.7
8/30/26 - 1820 79.7 45.3 30 19.6 W | 280 27.5 WNW | 285 89.9 66.7
8/30/26 - 1810 80.1 45.4 29 21.0 WNW | 283 30.9 WNW | 284 89.9 66.7
8/30/26 - 1800 81.0 45.5 29 21.9 WNW | 291 28.8 WNW | 301 89.9 66.7
8/30/26 - 1750 81.9 45.3 28 18.3 WNW | 294 24.8 NW | 311 89.9 66.7
8/30/26 - 1740 81.9 47.1 30 18.5 WNW | 290 26.4 WNW | 291 89.9 66.7
8/30/26 - 1730 81.8 47.6 30 19.6 WNW | 287 27.8 WNW | 284 89.9 66.7
8/30/26 - 1720 82.6 46.6 28 18.8 WNW | 289 26.7 WNW | 291 89.9 66.7
8/30/26 - 1710 83.4 46.6 28 17.3 WNW | 289 26.8 WNW | 301 89.9 66.7
8/30/26 - 1700 83.5 47.8 29 16.2 WNW | 287 23.1 WNW | 291 89.9 66.7
8/30/26 - 1650 83.8 48.5 29 16.4 WNW | 287 24.3 WNW | 295 89.9 66.7
8/30/26 - 1640 83.9 48.0 29 18.6 W | 271 26.8 W | 276 89.9 66.7
8/30/26 - 1630 84.8 47.5 27 16.5 WNW | 282 30.8 WNW | 291 89.9 66.7
8/30/26 - 1620 84.5 47.0 27 19.6 WNW | 294 26.6 WNW | 289 89.9 66.7
8/30/26 - 1610 85.3 46.6 26 16.5 WNW | 285 22.3 W | 280 89.9 66.7
8/30/26 - 1600 85.2 47.5 27 16.5 W | 274 23.1 W | 280 89.9 66.7
8/30/26 - 1550 85.7 47.7 27 15.6 W | 280 22.6 WNW | 288 89.9 66.7
8/30/26 - 1540 86.5 48.0 26 11.6 W | 261 18.4 WSW | 256 89.9 66.7
8/30/26 - 1530 86.3 47.7 26 14.3 W | 263 23.3 WSW | 254 89.9 66.7
8/30/26 - 1520 86.4 48.6 27 13.6 W | 265 23.3 WNW | 284 89.9 66.7
8/30/26 - 1510 86.9 49.5 28 16.7 W | 261 24.8 W | 280 89.9 66.7
8/30/26 - 1500 87.5 50.5 28 14.1 WSW | 252 24.6 SW | 232 89.9 66.7
8/30/26 - 1450 87.7 51.1 29 12.2 WSW | 242 22.4 WSW | 237 89.9 66.7
8/30/26 - 1440 88.4 51.8 29 10.6 WSW | 256 22.3 SW | 228 89.9 66.7
8/30/26 - 1430 87.1 51.7 30 12.6 WSW | 256 25.0 WSW | 242 89.6 66.7
8/30/26 - 1420 86.2 51.7 31 13.5 W | 276 25.4 W | 281 89.6 66.7
8/30/26 - 1410 86.5 51.5 30 14.8 WNW | 290 22.6 WNW | 286 89.6 66.7
8/30/26 - 1400 87.1 51.6 30 13.1 WNW | 285 23.7 W | 278 89.6 66.7
8/30/26 - 1350 87.1 51.1 29 12.0 W | 263 21.0 NW | 314 89.6 66.7
8/30/26 - 1340 88.6 50.7 27 11.9 SSW | 202 24.0 S | 188 89.6 66.7
8/30/26 - 1330 86.9 49.5 28 14.2 SW | 215 22.9 SSW | 206 88.9 66.7
8/30/26 - 1320 86.9 49.0 27 16.7 SSW | 210 26.7 SSW | 208 88.9 66.7
8/30/26 - 1310 86.5 48.3 27 14.1 SSW | 205 26.8 SSW | 208 88.9 66.7
8/30/26 - 1300 87.2 48.3 26 13.4 SSW | 210 22.1 SSW | 203 88.9 66.7
8/30/26 - 1250 87.8 48.2 26 11.3 SSW | 205 22.5 SSW | 194 88.9 66.7
8/30/26 - 1240 87.5 48.4 26 10.1 SW | 218 19.4 SW | 230 88.9 66.7
8/30/26 - 1230 85.8 48.3 27 4.6 W | 270 15.5 NNW | 327 88.9 66.7
8/30/26 - 1220 87.7 48.3 26 4.7 SSW | 212 16.4 SSE | 165 88.9 66.7
8/30/26 - 1210 87.6 48.0 25 5.9 WSW | 249 15.4 WSW | 246 88.9 66.7
8/30/26 - 1200 86.3 47.7 26 7.4 W | 266 14.3 W | 277 88.9 66.7
8/30/26 - 1150 87.6 47.6 25 6.1 SW | 222 11.9 W | 262 88.9 66.7
8/30/26 - 1140 84.9 46.4 26 9.5 WNW | 284 17.9 WNW | 303 86.5 66.7
8/30/26 - 1130 84.8 46.3 26 12.6 WNW | 292 18.3 WNW | 299 86.5 66.7
8/30/26 - 1120 84.6 46.1 26 9.2 WNW | 288 17.9 W | 267 86.5 66.7
8/30/26 - 1110 85.8 46.3 25 10.4 W | 261 20.7 W | 280 86.5 66.7
8/30/26 - 1100 84.6 45.9 26 11.0 W | 270 20.6 WNW | 298 85.4 66.7
8/30/26 - 1050 84.7 45.9 26 9.0 W | 277 16.4 W | 273 85.1 66.7
8/30/26 - 1040 83.6 45.9 27 10.1 W | 268 16.2 WSW | 253 84.3 66.7
8/30/26 - 1030 83.0 46.4 28 7.9 W | 281 12.3 NW | 308 84.3 66.7
Max 88.6 51.8 41 21.9 - 30.9 - 89.9 68.0
Avg 74.6 41.5 31 12.5 - 18.7 - - -
Min 62.9 24.3 15 4.6 - 9.5 - 68.5 62.8